Time;durP1;ratioP1;P1;durP2;ratioP2;P2;SDS_P1;SDS_P2;PMS_P1;PMS_P2;Temp;Humidity;BMP_temperature;BMP_pressure;BME280_temperature;BME280_humidity;BME280_pressure;Samples;Min_cycle;Max_cycle;Signal;HPM_P1;HPM_P2
2021/10/14 00:00:19;;;;;;;;;33.25;31.50;;;;;14.39;54.92;102262.84;2091027;28;48186;-48
2021/10/14 00:01:19;;;;;;;;;40.75;34.75;;;;;14.38;55.07;102263.75;2089957;28;47193;-50
2021/10/14 00:02:20;;;;;;;;;36.25;31.75;;;;;14.38;55.10;102261.09;2090390;28;46901;-49
2021/10/14 00:03:21;;;;;;;;;34.80;31.20;;;;;14.36;54.87;102262.91;2090844;28;46336;-45
2021/10/14 00:04:22;;;;;;;;;37.25;32.75;;;;;14.35;54.86;102262.88;2090954;28;48021;-49
2021/10/14 00:05:22;;;;;;;;;38.00;33.75;;;;;14.34;55.00;102255.78;2092106;28;47327;-48
2021/10/14 00:06:23;;;;;;;;;37.00;34.00;;;;;14.32;55.15;102266.47;2092436;28;45217;-47
2021/10/14 00:07:23;;;;;;;;;34.75;32.25;;;;;14.31;55.00;102263.84;2092270;28;46840;-46
2021/10/14 00:08:23;;;;;;;;;36.75;32.75;;;;;14.29;54.99;102266.53;2091829;28;46245;-51
2021/10/14 00:09:25;;;;;;;;;31.00;30.00;;;;;14.29;55.15;102261.19;2091559;28;48108;-47
2021/10/14 00:10:26;;;;;;;;;34.20;31.80;;;;;14.28;54.91;102258.53;2091903;28;48276;-47
2021/10/14 00:11:27;;;;;;;;;34.60;31.20;;;;;14.25;55.40;102262.16;2081982;28;48250;-50
2021/10/14 00:12:28;;;;;;;;;39.80;33.40;;;;;14.24;55.00;102257.72;2091754;28;46406;-48
2021/10/14 00:13:29;;;;;;;;;37.50;33.00;;;;;14.24;55.51;102264.84;2092415;28;48089;-46
2021/10/14 00:14:29;;;;;;;;;30.75;30.25;;;;;14.24;55.56;102263.06;2092087;28;46909;-48
2021/10/14 00:15:30;;;;;;;;;37.75;32.75;;;;;14.24;55.30;102263.06;2083344;28;46928;-47
2021/10/14 00:16:31;;;;;;;;;35.00;32.00;;;;;14.25;55.44;102262.16;2069264;28;45541;-48
2021/10/14 00:17:31;;;;;;;;;40.25;33.25;;;;;14.25;55.55;102262.16;2089396;28;45997;-49
2021/10/14 00:18:32;;;;;;;;;36.75;33.00;;;;;14.26;55.54;102269.25;2092263;28;47514;-50
2021/10/14 00:19:32;;;;;;;;;36.25;32.25;;;;;14.26;55.17;102263.03;2092371;28;48436;-49
2021/10/14 00:20:33;;;;;;;;;43.25;35.00;;;;;14.25;55.30;102264.81;2092201;28;47000;-49
2021/10/14 00:21:33;;;;;;;;;38.25;34.75;;;;;14.25;55.29;102267.47;2092380;28;48113;-48
2021/10/14 00:22:34;;;;;;;;;34.25;32.00;;;;;14.27;55.36;102265.69;2092183;28;46731;-50
2021/10/14 00:23:35;;;;;;;;;40.75;34.50;;;;;14.28;55.34;102271.91;2091368;28;47145;-48
2021/10/14 00:24:35;;;;;;;;;34.00;30.00;;;;;14.28;55.08;102266.56;2091955;28;47335;-48
2021/10/14 00:25:36;;;;;;;;;35.50;32.00;;;;;14.28;55.28;102270.09;2092167;28;47346;-48
2021/10/14 00:26:37;;;;;;;;;36.00;32.75;;;;;14.28;55.22;102266.56;2092371;28;48083;-50
2021/10/14 00:27:38;;;;;;;;;37.40;33.00;;;;;14.29;54.96;102268.31;2091541;28;46589;-50
2021/10/14 00:28:38;;;;;;;;;37.75;33.75;;;;;14.28;55.05;102270.09;2091759;28;48433;-50
2021/10/14 00:29:39;;;;;;;;;34.25;32.25;;;;;14.28;55.26;102263.88;2100039;27;45624;-48
2021/10/14 00:30:39;;;;;;;;;40.50;35.25;;;;;14.29;54.96;102276.34;2099996;27;47300;-49
2021/10/14 00:31:39;;;;;;;;;34.75;30.75;;;;;14.27;55.13;102260.34;2091635;28;47219;-47
2021/10/14 00:32:40;;;;;;;;;42.75;34.00;;;;;14.27;55.39;102268.34;2092478;28;47361;-47
2021/10/14 00:33:41;;;;;;;;;42.75;34.75;;;;;14.26;55.21;102271.03;2091553;28;46444;-48
2021/10/14 00:34:41;;;;;;;;;37.25;32.75;;;;;14.26;55.18;102273.72;2083499;28;46150;-50
2021/10/14 00:35:41;;;;;;;;;41.75;36.25;;;;;14.26;55.17;102276.38;2091957;28;47303;-47
2021/10/14 00:36:42;;;;;;;;;44.50;36.75;;;;;14.26;54.62;102273.72;2092403;28;47333;-50
2021/10/14 00:37:42;;;;;;;;;41.25;36.25;;;;;14.25;55.12;102264.81;2092017;28;47303;-47
2021/10/14 00:38:43;;;;;;;;;42.50;36.75;;;;;14.26;54.98;102273.72;2092258;28;47179;-48
2021/10/14 00:39:43;;;;;;;;;41.75;36.75;;;;;14.26;54.77;102271.03;2088561;28;46397;-51
2021/10/14 00:40:45;;;;;;;;;42.75;37.50;;;;;14.26;54.99;102279.03;2084457;28;47328;-48
2021/10/14 00:41:46;;;;;;;;;45.00;38.20;;;;;14.26;55.02;102273.72;2091899;28;46950;-49
2021/10/14 00:42:46;;;;;;;;;47.00;39.50;;;;;14.26;54.77;102265.69;2092232;28;48101;-49
2021/10/14 00:43:47;;;;;;;;;46.00;38.75;;;;;14.26;54.68;102268.38;2091382;28;46989;-51
2021/10/14 00:44:54;;;;;;;;;46.80;40.60;;;;;14.26;54.95;102271.03;2091758;28;47230;-49
2021/10/14 00:45:54;;;;;;;;;46.00;39.00;;;;;14.25;54.91;102267.47;2091576;28;47343;-49
2021/10/14 00:46:56;;;;;;;;;47.50;40.00;;;;;14.25;55.08;102267.47;2092024;28;47605;-51
2021/10/14 00:47:56;;;;;;;;;44.80;39.00;;;;;14.25;55.11;102271.94;2091235;28;47474;-48
2021/10/14 00:48:57;;;;;;;;;46.00;38.50;;;;;14.23;55.05;102268.38;2091417;28;47356;-50
2021/10/14 00:49:58;;;;;;;;;40.00;35.50;;;;;14.20;55.17;102266.63;2091391;28;48021;-50
2021/10/14 00:50:59;;;;;;;;;50.00;39.20;;;;;14.20;55.10;102271.09;2091498;28;47912;-51
2021/10/14 00:51:59;;;;;;;;;45.25;37.25;;;;;14.20;55.20;102260.41;2091006;28;46753;-49
2021/10/14 00:53:00;;;;;;;;;42.50;37.25;;;;;14.19;54.85;102272.88;2091687;28;48528;-51
2021/10/14 00:54:01;;;;;;;;;46.60;39.40;;;;;14.19;55.00;102269.31;2091955;28;48286;-50
2021/10/14 00:55:03;;;;;;;;;42.50;36.50;;;;;14.18;54.91;102268.44;2092268;28;47265;-51
2021/10/14 00:56:04;;;;;;;;;41.60;36.40;;;;;14.17;54.99;102268.47;2091844;28;48106;-52
2021/10/14 00:57:05;;;;;;;;;44.00;38.80;;;;;14.16;55.33;102272.94;2092034;28;47901;-50
2021/10/14 00:58:06;;;;;;;;;39.50;35.50;;;;;14.15;55.41;102263.16;2092182;28;47369;-50
2021/10/14 00:59:07;;;;;;;;;45.00;38.00;;;;;14.14;55.13;102267.59;2091928;28;46980;-48
2021/10/14 01:00:09;;;;;;;;;38.20;34.80;;;;;14.14;55.33;102264.94;2093481;28;48256;-49
2021/10/14 01:01:09;;;;;;;;;42.60;36.60;;;;;14.14;55.37;102261.38;2091668;28;47200;-46
2021/10/14 01:02:10;;;;;;;;;40.00;33.75;;;;;14.14;55.46;102266.72;2092184;28;47146;-48
2021/10/14 01:03:10;;;;;;;;;47.00;37.75;;;;;14.14;55.38;102261.38;2091802;28;47419;-48
2021/10/14 01:04:11;;;;;;;;;43.00;36.75;;;;;14.13;55.27;102255.16;2092202;28;46870;-51
2021/10/14 01:05:12;;;;;;;;;43.75;37.75;;;;;14.14;55.32;102258.72;2092568;28;48387;-48
2021/10/14 01:06:12;;;;;;;;;41.80;36.20;;;;;14.14;55.12;102259.59;2091542;28;48232;-49
2021/10/14 01:07:13;;;;;;;;;41.75;36.25;;;;;14.15;55.26;102257.81;2091266;28;46793;-47
2021/10/14 01:08:14;;;;;;;;;41.80;35.80;;;;;14.14;54.97;102250.72;2091159;28;45291;-50
2021/10/14 01:09:15;;;;;;;;;41.25;36.50;;;;;14.14;55.07;102253.38;2091511;28;47692;-49
2021/10/14 01:10:15;;;;;;;;;45.00;37.50;;;;;14.14;54.89;102250.72;2098840;27;47194;-49
2021/10/14 01:11:15;;;;;;;;;37.75;34.75;;;;;14.14;55.23;102248.03;2099796;27;47094;-51
2021/10/14 01:12:17;;;;;;;;;46.00;40.00;;;;;14.14;55.21;102248.03;2092255;28;48047;-49
2021/10/14 01:13:18;;;;;;;;;44.80;37.80;;;;;14.15;55.15;102252.47;2091123;28;47224;-49
2021/10/14 01:14:19;;;;;;;;;44.00;36.75;;;;;14.14;54.92;102248.03;2091478;28;47385;-51
2021/10/14 01:15:24;;;;;;;;;41.00;35.25;;;;;14.14;55.33;102251.59;2091728;28;45214;-51
2021/10/14 01:16:24;;;;;;;;;44.80;36.40;;;;;14.13;55.32;102249.81;2091232;28;47316;-52
2021/10/14 01:17:25;;;;;;;;;37.25;31.75;;;;;14.13;55.31;102252.50;2091811;28;46822;-50
2021/10/14 01:18:25;;;;;;;;;43.25;36.25;;;;;14.11;55.53;102240.94;2091397;28;47255;-49
2021/10/14 01:19:26;;;;;;;;;41.50;37.00;;;;;14.10;55.41;102247.19;2091003;28;47273;-50
2021/10/14 01:20:27;;;;;;;;;44.50;36.00;;;;;14.09;55.12;102237.38;2092238;28;48025;-48
2021/10/14 01:21:28;;;;;;;;;43.25;36.25;;;;;14.10;55.25;102247.19;2091417;28;47277;-51
2021/10/14 01:22:28;;;;;;;;;44.75;37.00;;;;;14.09;55.50;102241.84;2091187;28;48295;-50
2021/10/14 01:23:29;;;;;;;;;45.00;37.50;;;;;14.08;55.54;102240.09;2090916;28;48117;-49
2021/10/14 01:24:29;;;;;;;;;45.25;38.75;;;;;14.07;55.29;102235.66;2091914;28;48215;-52
2021/10/14 01:25:31;;;;;;;;;42.25;36.75;;;;;14.06;55.41;102236.56;2091069;28;48356;-48
2021/10/14 01:26:31;;;;;;;;;45.60;37.60;;;;;14.05;55.30;102235.66;2091373;28;48297;-51
2021/10/14 01:27:32;;;;;;;;;46.75;38.75;;;;;14.06;55.45;102242.78;2088805;28;48204;-50
2021/10/14 01:28:32;;;;;;;;;40.50;36.00;;;;;14.05;55.42;102235.66;2091281;28;47107;-50
2021/10/14 01:29:34;;;;;;;;;44.25;39.00;;;;;14.07;55.40;102246.31;2090745;28;46742;-46
2021/10/14 01:30:34;;;;;;;;;49.00;39.60;;;;;14.07;55.40;102241.00;2091356;28;48223;-48
2021/10/14 01:31:35;;;;;;;;;45.25;37.75;;;;;14.06;55.53;102239.22;2090835;28;47119;-49
2021/10/14 01:32:36;;;;;;;;;47.75;39.25;;;;;14.07;55.29;102243.66;2091884;28;47762;-49
2021/10/14 01:33:36;;;;;;;;;49.00;40.75;;;;;14.07;55.45;102238.31;2091560;28;46718;-50
2021/10/14 01:34:37;;;;;;;;;60.50;48.50;;;;;14.06;55.45;102240.09;2091954;28;46271;-49
2021/10/14 01:35:37;;;;;;;;;55.25;45.50;;;;;14.07;55.21;102246.31;2091861;28;47137;-49
2021/10/14 01:36:38;;;;;;;;;62.25;50.25;;;;;14.07;55.58;102239.19;2091807;28;45629;-47
2021/10/14 01:37:38;;;;;;;;;64.75;51.50;;;;;14.06;55.57;102240.09;2091799;28;47306;-51
2021/10/14 01:38:39;;;;;;;;;53.75;44.00;;;;;14.06;55.45;102237.44;2091494;28;45381;-50
2021/10/14 01:39:40;;;;;;;;;49.00;41.75;;;;;14.06;55.24;102244.56;2091673;28;47420;-48
2021/10/14 01:40:40;;;;;;;;;45.50;37.25;;;;;14.05;55.32;102235.66;2091073;28;47988;-47
2021/10/14 01:41:45;;;;;;;;;44.25;36.75;;;;;14.05;55.24;102232.13;2082636;28;47260;-47
2021/10/14 01:42:46;;;;;;;;;45.40;37.60;;;;;14.03;55.54;102233.94;2090759;28;47652;-51
2021/10/14 01:43:47;;;;;;;;;43.20;38.00;;;;;14.03;55.49;102231.25;2089122;28;46054;-47
2021/10/14 01:44:47;;;;;;;;;45.50;39.50;;;;;14.00;55.39;102237.53;2091061;28;45779;-47
2021/10/14 01:45:48;;;;;;;;;48.00;40.25;;;;;14.01;55.62;102241.97;2091437;28;48187;-49
2021/10/14 01:46:48;;;;;;;;;45.50;39.50;;;;;13.99;55.52;102234.88;2091474;28;47186;-47
2021/10/14 01:47:49;;;;;;;;;47.50;40.00;;;;;13.98;55.64;102228.66;2091751;28;46070;-48
2021/10/14 01:48:50;;;;;;;;;41.25;36.00;;;;;13.98;55.61;102233.13;2091628;28;47151;-50
2021/10/14 01:49:50;;;;;;;;;45.60;39.40;;;;;13.96;55.41;102230.44;2091676;28;48554;-49
2021/10/14 01:50:51;;;;;;;;;45.75;39.25;;;;;13.97;55.75;102228.63;2091782;28;47065;-47
2021/10/14 01:51:51;;;;;;;;;45.50;38.75;;;;;13.96;55.24;102224.22;2090469;28;47201;-49
2021/10/14 01:52:52;;;;;;;;;46.25;38.50;;;;;13.95;55.66;102230.44;2087800;28;46709;-48
2021/10/14 01:53:52;;;;;;;;;47.50;39.50;;;;;13.93;55.44;102233.13;2091592;28;47459;-49
2021/10/14 01:54:53;;;;;;;;;43.75;38.25;;;;;13.93;55.53;102229.59;2091619;28;47386;-49
2021/10/14 01:55:53;;;;;;;;;44.00;37.50;;;;;13.93;55.71;102227.81;2088119;28;47372;-47
2021/10/14 01:56:54;;;;;;;;;46.00;38.25;;;;;13.93;55.48;102227.81;2091094;28;48052;-46
2021/10/14 01:57:54;;;;;;;;;46.00;38.25;;;;;13.94;55.79;102231.34;2091047;28;48278;-48
2021/10/14 01:58:55;;;;;;;;;45.25;38.25;;;;;13.94;55.50;102234.91;2091065;28;46364;-50
2021/10/14 01:59:55;;;;;;;;;45.25;36.50;;;;;13.95;55.78;102227.78;2090919;28;47172;-46
2021/10/14 02:00:56;;;;;;;;;50.75;40.00;;;;;13.95;55.65;102233.13;2091626;28;45294;-49
2021/10/14 02:01:56;;;;;;;;;47.00;39.00;;;;;13.96;55.63;102229.56;2091392;28;46108;-46
2021/10/14 02:02:57;;;;;;;;;46.50;39.50;;;;;13.95;55.65;102231.34;2090946;28;47992;-47
2021/10/14 02:03:57;;;;;;;;;43.75;38.25;;;;;13.94;55.65;102228.69;2090958;28;48209;-49
2021/10/14 02:04:58;;;;;;;;;42.50;37.00;;;;;13.96;55.65;102226.88;2091635;28;47365;-46
2021/10/14 02:05:58;;;;;;;;;44.00;37.00;;;;;13.94;55.42;102224.22;2091680;28;46777;-49
2021/10/14 02:06:58;;;;;;;;;36.25;33.00;;;;;13.94;55.54;102223.34;2091935;28;46947;-49
2021/10/14 02:08:00;;;;;;;;;42.25;35.50;;;;;13.93;55.63;102219.78;2090749;28;47193;-46
2021/10/14 02:09:00;;;;;;;;;44.60;38.60;;;;;13.93;55.59;102221.59;2086563;28;47790;-46
2021/10/14 02:10:01;;;;;;;;;45.75;38.75;;;;;13.93;55.76;102224.25;2091412;28;47584;-46
2021/10/14 02:11:01;;;;;;;;;41.25;36.00;;;;;13.91;55.71;102212.72;2092046;28;47224;-48
2021/10/14 02:12:02;;;;;;;;;34.25;32.75;;;;;13.92;55.61;102217.16;2091211;28;48412;-48
2021/10/14 02:13:03;;;;;;;;;38.75;33.50;;;;;13.92;55.64;102225.16;2091593;28;46814;-48
2021/10/14 02:14:04;;;;;;;;;38.60;35.20;;;;;13.90;55.57;102219.84;2090854;28;47564;-49
2021/10/14 02:15:05;;;;;;;;;38.75;35.50;;;;;13.90;55.69;102221.63;2089440;28;47158;-50
2021/10/14 02:16:05;;;;;;;;;43.00;36.25;;;;;13.90;55.61;102221.63;2091259;28;47222;-49
2021/10/14 02:17:06;;;;;;;;;41.50;35.25;;;;;13.89;55.77;102222.53;2089012;28;47408;-51
2021/10/14 02:18:06;;;;;;;;;39.25;35.25;;;;;13.87;55.48;102219.88;2090893;28;47273;-46
2021/10/14 02:19:07;;;;;;;;;40.25;35.50;;;;;13.87;55.93;102217.22;2091539;28;47446;-48
2021/10/14 02:20:08;;;;;;;;;38.25;33.50;;;;;13.86;55.54;102220.78;2091123;28;47077;-48
2021/10/14 02:21:08;;;;;;;;;38.80;34.40;;;;;13.84;55.74;102207.44;2090745;28;48277;-48
2021/10/14 02:22:09;;;;;;;;;42.75;36.50;;;;;13.84;55.71;102211.88;2091602;28;47042;-47
2021/10/14 02:23:09;;;;;;;;;43.25;36.00;;;;;13.84;55.76;102206.56;2091335;28;47187;-49
2021/10/14 02:24:10;;;;;;;;;39.25;33.50;;;;;13.83;55.51;102208.34;2091544;28;46985;-50
2021/10/14 02:25:13;;;;;;;;;36.00;32.25;;;;;13.84;55.60;102212.78;2091497;28;47535;-49
2021/10/14 02:26:13;;;;;;;;;34.00;32.40;;;;;13.84;55.75;102209.22;2088803;28;47192;-49
2021/10/14 02:27:14;;;;;;;;;35.25;32.50;;;;;13.83;55.70;102208.34;2091032;28;48206;-47
2021/10/14 02:28:14;;;;;;;;;36.25;33.50;;;;;13.84;55.78;102206.56;2091187;28;47178;-49
2021/10/14 02:29:14;;;;;;;;;40.25;33.25;;;;;13.84;55.75;102210.09;2090442;28;47256;-48
2021/10/14 02:30:15;;;;;;;;;39.75;34.00;;;;;13.82;55.67;102201.25;2090840;28;48164;-50
2021/10/14 02:31:16;;;;;;;;;37.25;34.50;;;;;13.82;55.83;102201.25;2091242;28;46308;-48
2021/10/14 02:32:17;;;;;;;;;37.50;33.75;;;;;13.82;55.99;102205.69;2091433;28;47436;-48
2021/10/14 02:33:17;;;;;;;;;39.25;34.25;;;;;13.82;55.94;102206.56;2090701;28;46355;-50
2021/10/14 02:34:18;;;;;;;;;44.75;36.25;;;;;13.81;55.68;102207.47;2090686;28;47137;-46
2021/10/14 02:35:18;;;;;;;;;40.75;36.00;;;;;13.81;55.97;102202.13;2091421;28;47900;-47
2021/10/14 02:36:19;;;;;;;;;45.00;38.00;;;;;13.81;55.99;102207.47;2091840;28;47414;-46
2021/10/14 02:37:19;;;;;;;;;41.25;37.00;;;;;13.81;56.01;102207.47;2090564;28;47357;-50
2021/10/14 02:38:20;;;;;;;;;41.50;36.50;;;;;13.81;55.64;102203.94;2090795;28;46128;-51
2021/10/14 02:39:20;;;;;;;;;38.00;34.00;;;;;13.80;56.00;102207.50;2091234;28;47252;-49
2021/10/14 02:40:20;;;;;;;;;42.50;37.25;;;;;13.78;56.06;102207.53;2091451;28;46722;-49
2021/10/14 02:41:21;;;;;;;;;38.50;33.25;;;;;13.80;55.90;102207.50;2090501;28;48392;-49
2021/10/14 02:42:22;;;;;;;;;37.75;34.00;;;;;13.77;55.99;102213.75;2092254;28;48311;-48
2021/10/14 02:43:22;;;;;;;;;40.75;33.25;;;;;13.76;56.11;102205.78;2096557;27;47733;-49
2021/10/14 02:44:23;;;;;;;;;44.25;37.25;;;;;13.76;56.06;102212.00;2091367;28;47233;-48
2021/10/14 02:45:23;;;;;;;;;40.50;36.00;;;;;13.76;55.86;102208.44;2091045;28;47211;-47
2021/10/14 02:46:24;;;;;;;;;38.75;34.50;;;;;13.76;56.09;102212.00;2090582;28;46400;-50
2021/10/14 02:47:24;;;;;;;;;38.25;34.00;;;;;13.75;56.12;102207.56;2090473;28;46260;-49
2021/10/14 02:48:25;;;;;;;;;44.00;36.00;;;;;13.75;56.20;102204.91;2091364;28;47937;-50
2021/10/14 02:49:25;;;;;;;;;40.75;36.00;;;;;13.76;55.89;102205.78;2090667;28;48153;-50
2021/10/14 02:50:26;;;;;;;;;39.50;34.25;;;;;13.75;56.11;102212.91;2090874;28;47285;-52
2021/10/14 02:51:26;;;;;;;;;42.00;37.25;;;;;13.75;55.91;102204.91;2091015;28;48619;-50
2021/10/14 02:52:27;;;;;;;;;41.50;36.50;;;;;13.75;56.09;102215.56;2091596;28;48405;-50
2021/10/14 02:53:28;;;;;;;;;43.75;36.50;;;;;13.75;55.90;102210.22;2090932;28;47068;-48
2021/10/14 02:54:29;;;;;;;;;46.20;39.00;;;;;13.75;56.16;102209.34;2090924;28;47075;-47
2021/10/14 02:55:29;;;;;;;;;45.75;39.00;;;;;13.73;55.97;102206.69;2090557;28;47869;-47
2021/10/14 02:56:30;;;;;;;;;42.00;36.00;;;;;13.74;56.10;102205.78;2091413;28;47078;-50
2021/10/14 02:57:30;;;;;;;;;41.50;36.00;;;;;13.75;56.05;102207.56;2091361;28;45284;-51
2021/10/14 02:58:31;;;;;;;;;40.50;36.00;;;;;13.74;56.09;102207.59;2091458;28;47303;-48
2021/10/14 02:59:31;;;;;;;;;43.25;37.25;;;;;13.73;56.04;102200.47;2089995;28;47269;-51
2021/10/14 03:00:32;;;;;;;;;42.75;35.75;;;;;13.73;56.31;102205.81;2090575;28;46105;-49
2021/10/14 03:01:32;;;;;;;;;43.00;35.50;;;;;13.73;56.18;102205.81;2083137;28;48377;-50
2021/10/14 03:02:32;;;;;;;;;40.75;36.25;;;;;13.72;56.20;102207.59;2090922;28;46392;-51
2021/10/14 03:03:34;;;;;;;;;40.50;35.50;;;;;13.72;56.19;102207.59;2090801;28;47296;-49
2021/10/14 03:04:34;;;;;;;;;41.80;36.80;;;;;13.72;56.22;102207.59;2091042;28;47374;-47
2021/10/14 03:05:35;;;;;;;;;41.25;36.75;;;;;13.73;56.10;102203.16;2087732;28;48383;-48
2021/10/14 03:06:35;;;;;;;;;45.25;38.25;;;;;13.73;56.11;102203.16;2088700;28;48218;-48
2021/10/14 03:07:36;;;;;;;;;42.00;36.00;;;;;13.73;55.92;102205.81;2091227;28;47082;-51
2021/10/14 03:08:36;;;;;;;;;44.25;36.00;;;;;13.73;56.06;102206.69;2091367;28;44941;-47
2021/10/14 03:09:36;;;;;;;;;46.00;38.75;;;;;13.73;56.15;102212.03;2091254;28;47060;-50
2021/10/14 03:10:37;;;;;;;;;38.50;35.00;;;;;13.73;55.85;102213.81;2091241;28;48367;-49
2021/10/14 03:11:37;;;;;;;;;46.25;37.00;;;;;13.72;55.81;102206.69;2091126;28;45272;-51
2021/10/14 03:12:38;;;;;;;;;44.50;36.75;;;;;13.72;55.82;102206.69;2091196;28;47167;-49
2021/10/14 03:13:39;;;;;;;;;44.75;36.00;;;;;13.72;56.10;102212.03;2091303;28;47328;-50
2021/10/14 03:14:39;;;;;;;;;42.00;37.50;;;;;13.70;56.05;102209.38;2090440;28;48484;-47
2021/10/14 03:15:40;;;;;;;;;42.25;36.50;;;;;13.70;55.95;102213.81;2090469;28;47169;-49
2021/10/14 03:16:40;;;;;;;;;44.50;36.50;;;;;13.69;55.76;102202.28;2090439;28;47211;-48
2021/10/14 03:17:40;;;;;;;;;37.25;33.25;;;;;13.68;55.98;102205.84;2090434;28;48062;-49
2021/10/14 03:18:42;;;;;;;;;42.00;36.25;;;;;13.69;55.94;102204.06;2091143;28;47104;-47
2021/10/14 03:19:42;;;;;;;;;43.00;35.60;;;;;13.68;55.89;102205.84;2091208;28;45539;-50
2021/10/14 03:20:43;;;;;;;;;44.00;37.00;;;;;13.67;55.70;102209.41;2090966;28;48137;-47
2021/10/14 03:21:43;;;;;;;;;43.00;37.00;;;;;13.66;55.84;102201.44;2091122;28;48181;-47
2021/10/14 03:22:44;;;;;;;;;44.75;39.00;;;;;13.64;55.83;102203.25;2091125;28;45020;-49
2021/10/14 03:23:45;;;;;;;;;45.50;38.25;;;;;13.64;55.86;102201.44;2090940;28;47157;-46
2021/10/14 03:24:45;;;;;;;;;40.80;36.20;;;;;13.63;56.15;102201.47;2090411;28;46706;-48
2021/10/14 03:25:46;;;;;;;;;40.25;36.25;;;;;13.62;56.22;102208.59;2082164;28;48135;-51
2021/10/14 03:26:46;;;;;;;;;43.25;35.00;;;;;13.61;56.08;102201.50;2088479;28;47268;-50
2021/10/14 03:27:47;;;;;;;;;43.50;37.00;;;;;13.60;56.09;102205.06;2088546;28;48215;-51
2021/10/14 03:28:50;;;;;;;;;38.00;35.00;;;;;13.62;56.03;102210.38;2087782;28;48283;-49
2021/10/14 03:29:50;;;;;;;;;42.00;36.20;;;;;13.61;56.12;102212.16;2087989;28;47332;-48
2021/10/14 03:30:51;;;;;;;;;42.50;36.00;;;;;13.60;56.01;102209.50;2085800;28;48124;-48
2021/10/14 03:31:51;;;;;;;;;36.75;32.00;;;;;13.60;56.12;102213.06;2079017;28;47658;-49
2021/10/14 03:32:52;;;;;;;;;42.50;36.50;;;;;13.61;56.17;102216.63;2083770;28;47240;-48
2021/10/14 03:33:52;;;;;;;;;41.50;36.50;;;;;13.60;56.05;102214.84;2089838;28;48127;-49
2021/10/14 03:34:52;;;;;;;;;41.25;35.00;;;;;13.60;56.27;102217.53;2090082;28;46228;-48
2021/10/14 03:35:53;;;;;;;;;44.75;38.25;;;;;13.60;56.15;102214.84;2090450;28;45415;-49
2021/10/14 03:36:54;;;;;;;;;44.00;37.25;;;;;13.60;56.23;102212.19;2090055;28;48381;-51
2021/10/14 03:37:55;;;;;;;;;39.00;33.25;;;;;13.58;55.87;102209.50;2089707;28;48411;-48
2021/10/14 03:38:55;;;;;;;;;40.75;35.00;;;;;13.58;56.16;102213.97;2090070;28;45085;-49
2021/10/14 03:39:55;;;;;;;;;40.25;34.50;;;;;13.58;56.20;102217.50;2090016;28;48231;-49
2021/10/14 03:40:56;;;;;;;;;41.50;36.00;;;;;13.58;56.28;102213.97;2090408;28;47100;-48
2021/10/14 03:41:57;;;;;;;;;46.75;38.00;;;;;13.57;56.12;102218.41;2090290;28;47610;-49
2021/10/14 03:42:57;;;;;;;;;45.75;39.00;;;;;13.55;56.17;102221.09;2094097;28;47212;-50
2021/10/14 03:43:58;;;;;;;;;48.00;36.00;;;;;13.55;55.97;102223.75;2081798;28;47241;-47
2021/10/14 03:44:58;;;;;;;;;37.00;34.25;;;;;13.54;56.20;102222.00;2090634;28;47347;-46
2021/10/14 03:45:59;;;;;;;;;44.25;37.25;;;;;13.55;56.11;102222.88;2090759;28;46210;-48
2021/10/14 03:46:59;;;;;;;;;33.75;32.75;;;;;13.55;56.05;102223.75;2091242;28;47726;-52
2021/10/14 03:47:59;;;;;;;;;41.00;36.00;;;;;13.54;56.23;102215.78;2090978;28;47151;-48
2021/10/14 03:49:00;;;;;;;;;44.00;38.25;;;;;13.54;56.25;102224.66;2091357;28;47880;-48
2021/10/14 03:50:00;;;;;;;;;38.25;34.00;;;;;13.53;55.87;102219.34;2087079;28;47090;-48
2021/10/14 03:51:01;;;;;;;;;42.50;35.25;;;;;13.53;56.21;102220.22;2086088;28;49076;-48
2021/10/14 03:52:01;;;;;;;;;38.50;35.00;;;;;13.52;56.02;102220.25;2090878;28;48037;-52
2021/10/14 03:53:02;;;;;;;;;43.50;37.00;;;;;13.52;56.18;102218.47;2090344;28;47221;-52
2021/10/14 03:54:03;;;;;;;;;38.50;34.25;;;;;13.52;56.31;102215.78;2089996;28;46773;-50
2021/10/14 03:55:05;;;;;;;;;44.60;36.80;;;;;13.52;56.21;102218.47;2091108;28;47415;-48
2021/10/14 03:56:06;;;;;;;;;41.00;35.80;;;;;13.51;56.13;102216.69;2090937;28;47081;-50
2021/10/14 03:57:06;;;;;;;;;43.25;35.75;;;;;13.51;56.24;102218.50;2091055;28;46855;-49
2021/10/14 03:58:08;;;;;;;;;38.75;35.50;;;;;13.50;56.20;102217.59;2090894;28;48156;-49
2021/10/14 03:59:08;;;;;;;;;44.20;37.60;;;;;13.50;56.23;102220.28;2090694;28;47439;-49
2021/10/14 04:00:09;;;;;;;;;24.75;23.25;;;;;13.50;56.56;102224.72;2089686;28;48300;-47
2021/10/14 04:01:10;;;;;;;;;45.60;37.80;;;;;13.50;56.26;102216.72;2090366;28;47533;-50
2021/10/14 04:02:10;;;;;;;;;43.00;35.75;;;;;13.48;56.19;102223.84;2089960;28;47983;-47
2021/10/14 04:03:11;;;;;;;;;12.75;12.75;;;;;13.48;56.30;102221.19;2089513;28;48330;-48
2021/10/14 04:04:11;;;;;;;;;43.00;35.25;;;;;13.48;56.13;102219.41;2089966;28;47097;-48
2021/10/14 04:05:12;;;;;;;;;44.00;38.00;;;;;13.47;56.26;102219.44;2089985;28;48235;-47
2021/10/14 04:06:12;;;;;;;;;45.00;38.50;;;;;13.47;56.29;102216.75;2089566;28;48025;-49
2021/10/14 04:07:13;;;;;;;;;45.00;36.25;;;;;13.47;56.21;102222.09;2090193;28;48192;-47
2021/10/14 04:08:13;;;;;;;;;38.00;34.25;;;;;13.45;56.41;102222.06;2091120;28;47273;-48
2021/10/14 04:09:13;;;;;;;;;43.75;37.00;;;;;13.46;56.24;102222.97;2090633;28;47321;-50
2021/10/14 04:10:14;;;;;;;;;41.50;36.75;;;;;13.43;56.35;102218.53;2089962;28;48275;-47
2021/10/14 04:11:15;;;;;;;;;46.40;38.20;;;;;13.43;56.60;102217.66;2089731;28;47377;-51
2021/10/14 04:12:15;;;;;;;;;43.25;36.50;;;;;13.42;56.30;102221.22;2082033;28;48024;-46
2021/10/14 04:13:16;;;;;;;;;37.50;34.50;;;;;13.40;56.66;102218.59;2089481;28;47407;-47
2021/10/14 04:14:16;;;;;;;;;40.25;36.00;;;;;13.38;56.54;102219.50;2090920;28;47220;-53
2021/10/14 04:15:18;;;;;;;;;41.25;36.50;;;;;13.36;56.61;102219.53;2090160;28;47105;-48
2021/10/14 04:16:18;;;;;;;;;41.60;36.00;;;;;13.37;56.61;102225.72;2090345;28;47404;-49
2021/10/14 04:17:19;;;;;;;;;43.75;35.25;;;;;13.35;56.63;102217.75;2090030;28;48162;-48
2021/10/14 04:18:19;;;;;;;;;39.75;35.50;;;;;13.36;56.42;102219.53;2090184;28;47564;-47
2021/10/14 04:19:20;;;;;;;;;41.25;36.00;;;;;13.36;56.67;102221.31;2091474;28;45399;-50
2021/10/14 04:20:20;;;;;;;;;42.75;37.00;;;;;13.36;56.32;102222.19;2091247;28;45302;-46
2021/10/14 04:21:21;;;;;;;;;39.00;34.25;;;;;13.37;56.63;102223.94;2090258;28;48074;-50
2021/10/14 04:22:22;;;;;;;;;33.50;30.75;;;;;13.37;56.31;102225.72;2091636;28;47461;-49
2021/10/14 04:23:23;;;;;;;;;40.75;36.25;;;;;13.36;56.30;102219.53;2090267;28;47475;-48
2021/10/14 04:24:26;;;;;;;;;43.75;36.00;;;;;13.36;56.49;102216.84;2090261;28;47216;-46
2021/10/14 04:25:26;;;;;;;;;39.00;34.40;;;;;13.37;56.53;102228.41;2084643;28;46999;-47
2021/10/14 04:26:27;;;;;;;;;35.00;33.00;;;;;13.36;56.58;102223.97;2090266;28;47368;-46
2021/10/14 04:27:27;;;;;;;;;38.50;33.75;;;;;13.35;56.41;102225.75;2090728;28;47176;-47
2021/10/14 04:28:28;;;;;;;;;41.75;35.50;;;;;13.35;56.30;102228.41;2090360;28;46131;-47
2021/10/14 04:29:28;;;;;;;;;35.50;33.00;;;;;13.35;56.50;102224.88;2089431;28;46311;-47
2021/10/14 04:30:29;;;;;;;;;38.50;35.50;;;;;13.34;56.47;102229.31;2090153;28;46828;-48
2021/10/14 04:31:30;;;;;;;;;38.50;34.25;;;;;13.34;56.35;102225.75;2090322;28;47234;-48
2021/10/14 04:32:31;;;;;;;;;39.00;34.50;;;;;13.33;56.43;102226.63;2090970;28;48284;-52
2021/10/14 04:33:31;;;;;;;;;45.00;37.00;;;;;13.32;56.38;102227.53;2089948;28;48040;-47
2021/10/14 04:34:32;;;;;;;;;44.75;37.00;;;;;13.32;56.40;102231.09;2088540;28;47584;-47
2021/10/14 04:35:32;;;;;;;;;42.75;36.75;;;;;13.32;56.37;102228.44;2089582;28;47296;-49